Flight Track Log - Related Links

Times and Time Zones

All times are in EDT time to prevent confusion due to time zone crossing. See the AMF6906 flight status page for this flight to view local times or setup timezone preferences in your user account.

Time Position Orientation Groundspeed Altitude Reporting Facility
EDT Latitude Longitude Course Direction KTS MPH feet Rate Location/Type
Thu 05:45:54 PM 17.3167 -62.9000 285° West 240 276 7,900  Level San Juan Center
Thu 05:46:00 PM 17.3970 -62.9614 298° West  Level Estimated
Thu 05:47:00 PM 17.4186 -63.0229 270° West  Level Estimated
Thu 05:47:40 PM 17.3500 -63.0333 285° West 250 288 7,900  Level San Juan Center
Thu 05:48:00 PM 17.4403 -63.0844 289° West  Level Estimated
Thu 05:49:00 PM 17.4213 -63.1469 252° West  Level FlightAware Approximate
Thu 05:49:40 PM 17.3667 -63.1500 279° West 160 184 12,000  Level San Juan Center
Thu 05:50:00 PM 17.4437 -63.2081 285° West  Level Estimated
Thu 05:50:41 PM 17.3833 -63.2000 289° West 200 230 12,000  Level San Juan Center
Thu 05:51:00 PM 17.4660 -63.2694 285° West  Level Estimated
Thu 05:51:41 PM 17.4000 -63.2667 285° West 250 288 12,000  Level San Juan Center
Thu 05:54:42 PM 17.4500 -63.4833 284° West 260 299 12,000  Level San Juan Center
Thu 05:56:02 PM 17.4667 -63.5833 280° West 250 288 12,000  Level San Juan Center
Thu 05:57:02 PM 17.4833 -63.6500 285° West 250 288 12,000  Level San Juan Center
Thu 05:58:03 PM 17.5167 -63.7333 293° West 260 299 12,000  Level San Juan Center
Thu 05:59:03 PM 17.5500 -63.8000 298° West 260 299 12,000  Level San Juan Center
Thu 06:00:03 PM 17.5667 -63.8667 285° West 250 288 12,000  Level San Juan Center
Thu 06:02:04 PM 17.6333 -64.0000 298° West 250 288 12,000  Level San Juan Center
Thu 06:03:04 PM 17.6500 -64.0667 285° West 260 299 12,000  Level San Juan Center
Thu 06:04:05 PM 17.6833 -64.1333 298° West 250 288 12,000  Level San Juan Center
Thu 06:05:05 PM 17.7167 -64.2000 298° West 260 299 12,000  Level San Juan Center
Thu 06:06:05 PM 17.7500 -64.2833 293° West 260 299 12,000  Level San Juan Center
Thu 06:07:06 PM 17.7667 -64.3500 285° West 260 299 12,000  Level San Juan Center
Thu 06:08:06 PM 17.8000 -64.4167 298° West 260 299 12,000  Level San Juan Center
Thu 06:09:06 PM 17.8333 -64.4833 298° West 260 299 12,000  Level San Juan Center
Thu 06:10:07 PM 17.8500 -64.5500 285° West 260 299 12,000  Level San Juan Center
Thu 06:11:07 PM 17.8833 -64.6167 298° West 250 288 12,000  Level San Juan Center
Thu 06:12:07 PM 17.9167 -64.7000 293° West 260 299 12,000  Level San Juan Center
Thu 06:13:07 PM 17.9500 -64.7667 298° West 250 288 12,000  Level San Juan Center
Thu 06:14:08 PM 17.9667 -64.8333 285° West 260 299 12,000  Level San Juan Center
Thu 06:15:08 PM 18.0000 -64.9000 298° West 260 299 12,000  Level San Juan Center
Thu 06:16:08 PM 18.0333 -64.9667 298° West 260 299 12,000  Level San Juan Center
Thu 06:17:09 PM 18.0500 -65.0333 285° West 260 299 12,000  Level San Juan Center
Thu 06:18:09 PM 18.0833 -65.1167 293° West 260 299 12,000 -300 Level San Juan Center
Thu 06:19:09 PM 18.1167 -65.1833 298° West 270 311 11,400 -496 Descending San Juan Center
Thu 06:20:10 PM 18.1500 -65.2500 298° West 270 311 11,000 -198 Descending San Juan Center
Thu 06:21:10 PM 18.1667 -65.3333 282° West 260 299 11,000  Level San Juan Center
Thu 06:22:10 PM 18.2000 -65.4000 298° West 260 299 11,000 -298 Level San Juan Center
Thu 06:23:11 PM 18.2333 -65.4667 298° West 270 311 10,400 -1,140 Descending San Juan Center
Thu 06:24:11 PM 18.2667 -65.5500 293° West 260 299 8,700 -1,600 Descending San Juan Center
Thu 06:25:11 PM 18.2833 -65.6167 285° West 250 288 7,200 -1,967 Descending San Juan Center
Thu 06:27:11 PM 18.3500 -65.7500 298° West 250 288 2,800 -1,856 Descending San Juan Center
Thu 06:28:12 PM 18.3667 -65.8167 285° West 240 276 1,600 -645 Descending San Juan Center
Thu 06:29:12 PM 18.3667 -65.8833 270° West 200 230 1,500 -100 Descending San Juan Center
Thu 06:30:12 PM 18.3833 -65.9333 289° West 200 230 1,400 -99 Descending San Juan Center
Thu 06:31:13 PM 18.4000 -65.9833 289° West 170 196 1,300 -496 Descending San Juan Center
Thu 06:32:13 PM 18.4167 -66.0167 298° West 90 104 400 -900 Descending San Juan Center

Login

Don't have an account? Register now (free) for customized features, flight alerts, and more!